Time;durP1;ratioP1;P1;durP2;ratioP2;P2;SDS_P1;SDS_P2;PMS_P1;PMS_P2;Temp;Humidity;BMP_temperature;BMP_pressure;BME280_temperature;BME280_humidity;BME280_pressure;Samples;Min_cycle;Max_cycle;Signal;HPM_P1;HPM_P2
2023/09/08 00:01:53;;;;;;;11.38;10.18;;;23.70;99.90;;;;;;5070926;28;20024;-59
2023/09/08 00:04:20;;;;;;;10.85;9.75;;;23.60;99.90;;;;;;5070178;28;20024;-59
2023/09/08 00:06:46;;;;;;;10.75;9.55;;;23.60;99.90;;;;;;5071134;28;20071;-59
2023/09/08 00:09:12;;;;;;;11.82;10.63;;;23.60;99.90;;;;;;5070678;28;20064;-59
2023/09/08 00:11:38;;;;;;;10.93;9.77;;;23.50;99.90;;;;;;5070748;28;20488;-59
2023/09/08 00:14:03;;;;;;;12.60;9.90;;;23.50;99.90;;;;;;5070554;28;20021;-59
2023/09/08 00:16:30;;;;;;;12.07;9.80;;;23.50;99.90;;;;;;5070548;28;20040;-59
2023/09/08 00:18:58;;;;;;;13.23;10.10;;;23.40;99.90;;;;;;5070225;28;20042;-59
2023/09/08 00:21:27;;;;;;;12.50;10.05;;;23.40;99.90;;;;;;5070868;28;20401;-58
2023/09/08 00:23:53;;;;;;;11.73;10.52;;;23.40;99.90;;;;;;5052425;28;20024;-59
2023/09/08 00:26:19;;;;;;;12.00;10.80;;;23.50;99.90;;;;;;5070579;28;20032;-59
2023/09/08 00:28:45;;;;;;;13.50;11.50;;;23.60;99.90;;;;;;5070373;28;20524;-59
2023/09/08 00:31:11;;;;;;;13.10;11.70;;;23.70;99.90;;;;;;5072449;28;20067;-59
2023/09/08 00:33:37;;;;;;;13.50;12.10;;;23.70;99.90;;;;;;5073937;28;20024;-59
2023/09/08 00:36:03;;;;;;;14.95;12.88;;;23.70;99.90;;;;;;5074126;28;20012;-59
2023/09/08 00:38:28;;;;;;;14.38;12.93;;;23.80;99.90;;;;;;5074465;28;20500;-59
2023/09/08 00:40:54;;;;;;;16.75;14.05;;;23.70;99.90;;;;;;5074017;28;20111;-59
2023/09/08 00:43:20;;;;;;;17.90;15.73;;;23.70;99.90;;;;;;5056622;28;20119;-59
2023/09/08 00:45:46;;;;;;;17.75;15.75;;;23.80;99.90;;;;;;5074188;28;20029;-59
2023/09/08 00:48:13;;;;;;;19.58;17.58;;;23.80;99.90;;;;;;5055589;28;20115;-59
2023/09/08 00:50:39;;;;;;;19.00;17.17;;;23.70;99.90;;;;;;5073894;28;20013;-59
2023/09/08 00:53:06;;;;;;;19.00;17.05;;;23.70;99.90;;;;;;5073524;28;20032;-59
2023/09/08 00:55:33;;;;;;;19.08;17.13;;;23.60;99.90;;;;;;5074224;28;20175;-59
2023/09/08 00:57:59;;;;;;;17.83;16.13;;;23.60;99.90;;;;;;5073894;28;20028;-59
2023/09/08 01:00:25;;;;;;;17.95;16.23;;;23.60;99.90;;;;;;5073655;28;20448;-59
2023/09/08 01:02:51;;;;;;;17.25;15.23;;;23.50;99.90;;;;;;5073426;28;20460;-59
2023/09/08 01:05:17;;;;;;;17.25;15.38;;;23.30;99.90;;;;;;5073710;28;20025;-59
2023/09/08 01:07:44;;;;;;;16.48;14.82;;;23.20;99.90;;;;;;5073988;28;20083;-59
2023/09/08 01:10:10;;;;;;;17.30;14.60;;;23.10;99.90;;;;;;5073267;28;20041;-59
2023/09/08 01:12:36;;;;;;;14.85;13.30;;;23.00;99.90;;;;;;5073986;28;20044;-59
2023/09/08 01:15:04;;;;;;;16.45;14.07;;;22.90;99.90;;;;;;5073631;28;20115;-59
2023/09/08 01:17:30;;;;;;;15.38;13.73;;;22.80;99.90;;;;;;5065227;28;20166;-59
2023/09/08 01:19:57;;;;;;;16.40;13.45;;;22.70;99.90;;;;;;5073449;28;20032;-59
2023/09/08 01:22:29;;;;;;;17.98;13.60;;;22.60;99.90;;;;;;5073822;28;20016;-58
2023/09/08 01:25:06;;;;;;;14.35;12.98;;;22.70;99.90;;;;;;5073396;28;20029;-59
2023/09/08 01:27:35;;;;;;;16.35;13.27;;;22.60;99.90;;;;;;5073278;28;20045;-59
2023/09/08 01:30:02;;;;;;;17.83;13.82;;;22.70;99.90;;;;;;5073248;28;20070;-59
2023/09/08 01:32:29;;;;;;;16.25;14.55;;;22.60;99.90;;;;;;5072884;28;20086;-59
2023/09/08 01:34:57;;;;;;;15.15;13.38;;;22.60;99.90;;;;;;5073755;28;20107;-60
2023/09/08 01:37:23;;;;;;;16.33;13.95;;;22.50;99.90;;;;;;5073325;28;20025;-60
2023/09/08 01:39:49;;;;;;;15.95;13.13;;;22.50;99.90;;;;;;5055076;28;20416;-59
2023/09/08 01:42:15;;;;;;;16.88;13.73;;;22.50;99.90;;;;;;5072494;28;20029;-59
2023/09/08 01:44:40;;;;;;;15.05;13.35;;;22.60;99.90;;;;;;5073548;28;20060;-59
2023/09/08 01:47:06;;;;;;;14.73;13.18;;;22.60;99.90;;;;;;5072324;28;20029;-59
2023/09/08 01:49:32;;;;;;;14.43;12.68;;;22.80;99.90;;;;;;5072904;28;20070;-59
2023/09/08 01:51:57;;;;;;;14.20;12.60;;;22.90;99.90;;;;;;5073210;28;20048;-59
2023/09/08 01:54:23;;;;;;;16.90;12.90;;;22.90;99.90;;;;;;5072757;28;20052;-59
2023/09/08 01:56:50;;;;;;;15.85;12.98;;;23.00;99.90;;;;;;5072775;28;20020;-59
2023/09/08 01:59:16;;;;;;;14.65;13.05;;;23.00;99.90;;;;;;5072642;28;20443;-59
2023/09/08 02:01:42;;;;;;;14.23;12.77;;;22.90;99.90;;;;;;5072618;28;20078;-59
2023/09/08 02:04:08;;;;;;;14.75;13.10;;;22.90;99.90;;;;;;5072699;28;20033;-59
2023/09/08 02:06:34;;;;;;;16.42;12.40;;;22.90;99.90;;;;;;5072594;28;20017;-59
2023/09/08 02:08:59;;;;;;;14.43;12.88;;;22.90;99.90;;;;;;5072467;28;20040;-59
2023/09/08 02:11:25;;;;;;;15.50;12.73;;;22.90;99.90;;;;;;5073045;28;20025;-59
2023/09/08 02:13:52;;;;;;;16.05;13.30;;;22.90;99.90;;;;;;5071984;28;20055;-59
2023/09/08 02:16:17;;;;;;;13.90;12.40;;;22.80;99.90;;;;;;5072568;28;20027;-59
2023/09/08 02:18:44;;;;;;;23.02;13.45;;;22.90;99.90;;;;;;5072435;28;20489;-59
2023/09/08 02:21:10;;;;;;;15.13;13.02;;;22.90;99.90;;;;;;5072383;28;20428;-59
2023/09/08 02:23:36;;;;;;;17.63;13.30;;;22.80;99.90;;;;;;5072190;28;20032;-59
2023/09/08 02:26:01;;;;;;;15.32;13.27;;;22.60;99.90;;;;;;5072242;28;20021;-60
2023/09/08 02:28:27;;;;;;;14.95;12.77;;;22.60;99.90;;;;;;5071698;28;20465;-59
2023/09/08 02:30:54;;;;;;;14.15;12.65;;;22.50;99.90;;;;;;5072482;28;20025;-59
2023/09/08 02:33:19;;;;;;;14.80;12.82;;;22.50;99.90;;;;;;5071968;28;20072;-59
2023/09/08 02:35:45;;;;;;;13.65;12.27;;;22.40;99.90;;;;;;5072026;28;20024;-59
2023/09/08 02:38:11;;;;;;;14.00;12.52;;;22.30;99.90;;;;;;5072034;28;20397;-59
2023/09/08 02:40:37;;;;;;;14.15;12.55;;;22.30;99.90;;;;;;5072459;28;20024;-60
2023/09/08 02:43:03;;;;;;;13.73;12.18;;;22.20;99.90;;;;;;5071580;28;20119;-59
2023/09/08 02:45:30;;;;;;;14.77;12.07;;;22.20;99.90;;;;;;5071790;28;20029;-59
2023/09/08 02:47:56;;;;;;;14.10;12.70;;;22.10;99.90;;;;;;5072235;28;20033;-59
2023/09/08 02:50:22;;;;;;;15.65;12.75;;;22.00;99.90;;;;;;5071862;28;20103;-60
2023/09/08 02:52:48;;;;;;;14.25;12.38;;;22.00;99.90;;;;;;5071460;28;20025;-59
2023/09/08 02:55:13;;;;;;;13.27;11.85;;;21.90;99.90;;;;;;5071110;28;20025;-60
2023/09/08 02:57:39;;;;;;;15.65;11.68;;;21.90;99.90;;;;;;5071210;28;20393;-60
2023/09/08 03:00:07;;;;;;;14.38;12.05;;;22.00;99.90;;;;;;5071393;28;20029;-59
2023/09/08 03:02:33;;;;;;;13.75;11.90;;;22.00;99.90;;;;;;5071582;28;20029;-59
2023/09/08 03:05:00;;;;;;;13.27;11.77;;;22.00;99.90;;;;;;5071450;28;20025;-59
2023/09/08 03:07:26;;;;;;;13.45;12.02;;;22.00;99.90;;;;;;5071809;28;20028;-59
2023/09/08 03:09:51;;;;;;;14.25;11.75;;;22.20;99.90;;;;;;5071391;28;20037;-59
2023/09/08 03:12:17;;;;;;;14.90;11.98;;;22.30;99.90;;;;;;5071004;28;20032;-59
2023/09/08 03:14:43;;;;;;;12.07;10.88;;;22.30;99.90;;;;;;5071271;28;20024;-59
2023/09/08 03:17:09;;;;;;;12.75;11.00;;;22.40;99.90;;;;;;5071397;28;20042;-59
2023/09/08 03:19:34;;;;;;;11.90;10.73;;;22.40;99.90;;;;;;5071287;28;20099;-58
2023/09/08 03:22:00;;;;;;;11.73;10.52;;;22.40;99.90;;;;;;5071548;28;20051;-59
2023/09/08 03:24:26;;;;;;;12.35;11.18;;;22.40;99.90;;;;;;5071447;28;20095;-59
2023/09/08 03:26:51;;;;;;;12.00;10.82;;;22.40;99.90;;;;;;5070681;28;20055;-60
2023/09/08 03:29:17;;;;;;;15.55;10.90;;;22.30;99.90;;;;;;5071245;28;20373;-59
2023/09/08 03:31:43;;;;;;;13.13;10.43;;;22.40;99.90;;;;;;5071085;28;20028;-59
2023/09/08 03:34:09;;;;;;;12.75;11.07;;;22.40;99.90;;;;;;5071117;28;20032;-59
2023/09/08 03:36:37;;;;;;;12.75;11.23;;;22.40;99.90;;;;;;5071229;28;20021;-59
2023/09/08 03:39:03;;;;;;;14.48;11.70;;;22.40;99.90;;;;;;5071041;28;20028;-59
2023/09/08 03:41:29;;;;;;;14.88;11.10;;;22.40;99.90;;;;;;5070602;28;20486;-60
2023/09/08 03:43:55;;;;;;;12.05;10.98;;;22.40;99.90;;;;;;5071111;28;20044;-59
2023/09/08 03:46:21;;;;;;;14.57;10.80;;;22.20;99.90;;;;;;5071466;28;20039;-59
2023/09/08 03:48:46;;;;;;;12.77;11.18;;;22.10;99.90;;;;;;5070912;28;20036;-59
2023/09/08 03:51:12;;;;;;;13.45;11.30;;;22.00;99.90;;;;;;5070919;28;20059;-59
2023/09/08 03:53:38;;;;;;;14.20;11.27;;;21.90;99.90;;;;;;5070935;28;20023;-59
2023/09/08 03:56:03;;;;;;;13.95;11.23;;;21.80;99.90;;;;;;5070556;28;20032;-59
2023/09/08 03:58:29;;;;;;;14.55;10.73;;;21.70;99.90;;;;;;5053091;28;20021;-59
2023/09/08 04:00:55;;;;;;;13.13;10.98;;;21.60;99.90;;;;;;5071165;28;20044;-59
2023/09/08 04:03:20;;;;;;;15.40;10.82;;;21.60;99.90;;;;;;5071047;28;20501;-59
2023/09/08 04:05:46;;;;;;;14.68;10.85;;;21.60;99.90;;;;;;5072127;28;20095;-59
2023/09/08 04:08:12;;;;;;;12.55;11.35;;;21.60;99.90;;;;;;5074728;28;20064;-59
2023/09/08 04:10:37;;;;;;;11.93;10.55;;;21.50;99.90;;;;;;5074551;28;20082;-59
2023/09/08 04:13:04;;;;;;;16.80;10.40;;;21.50;99.90;;;;;;5075155;28;20074;-59
2023/09/08 04:15:29;;;;;;;14.75;10.15;;;21.50;99.90;;;;;;5074714;28;20043;-59
2023/09/08 04:17:57;;;;;;;11.43;10.23;;;21.40;99.90;;;;;;5074897;28;20485;-60
2023/09/08 04:20:22;;;;;;;15.68;10.52;;;21.30;99.90;;;;;;5074661;28;20072;-59
2023/09/08 04:22:48;;;;;;;11.48;10.13;;;21.30;99.90;;;;;;5074925;28;20056;-59
2023/09/08 04:25:14;;;;;;;11.55;10.20;;;21.30;99.90;;;;;;5074309;28;20029;-59
2023/09/08 04:27:40;;;;;;;12.57;9.88;;;21.50;99.90;;;;;;5074228;28;20581;-59
2023/09/08 04:30:06;;;;;;;10.82;9.73;;;21.60;99.90;;;;;;5074407;28;20127;-59
2023/09/08 04:32:32;;;;;;;13.02;9.55;;;21.70;99.90;;;;;;5074268;28;20504;-59
2023/09/08 04:34:58;;;;;;;11.68;8.93;;;21.90;99.90;;;;;;5074696;28;20029;-59
2023/09/08 04:37:24;;;;;;;13.00;9.35;;;21.90;99.90;;;;;;5074395;28;20533;-59
2023/09/08 04:39:49;;;;;;;9.55;8.65;;;22.00;99.90;;;;;;5073787;28;20029;-60
2023/09/08 04:42:15;;;;;;;10.55;9.10;;;22.00;99.90;;;;;;5074132;28;20021;-59
2023/09/08 04:44:41;;;;;;;9.27;8.38;;;21.90;99.90;;;;;;5074567;28;20157;-59
2023/09/08 04:47:06;;;;;;;9.25;8.35;;;22.00;99.90;;;;;;5074232;28;20025;-59
2023/09/08 04:49:32;;;;;;;10.60;8.40;;;22.00;99.90;;;;;;5074004;28;20444;-59
2023/09/08 04:51:58;;;;;;;11.73;8.27;;;21.90;99.90;;;;;;5074296;28;20024;-59
2023/09/08 04:54:26;;;;;;;11.20;8.32;;;21.90;99.90;;;;;;5073523;28;20397;-59
2023/09/08 04:56:53;;;;;;;13.27;7.88;;;21.90;99.90;;;;;;5073970;28;20020;-59
2023/09/08 04:59:18;;;;;;;9.65;8.43;;;21.80;99.90;;;;;;5073991;28;20071;-59
2023/09/08 05:01:44;;;;;;;10.65;7.85;;;21.80;99.90;;;;;;5073828;28;20056;-59
2023/09/08 05:04:11;;;;;;;9.35;8.32;;;21.70;99.90;;;;;;5073873;28;20032;-59
2023/09/08 05:06:37;;;;;;;8.38;7.65;;;21.60;99.90;;;;;;5073833;28;20359;-59
2023/09/08 05:09:03;;;;;;;9.30;8.40;;;21.40;99.90;;;;;;5073185;28;20489;-59
2023/09/08 05:11:28;;;;;;;9.40;8.20;;;21.20;99.90;;;;;;5073863;28;20027;-59
2023/09/08 05:13:54;;;;;;;8.82;7.97;;;21.10;99.90;;;;;;5073697;28;20470;-59
2023/09/08 05:16:25;;;;;;;8.75;7.85;;;21.10;99.90;;;;;;5073893;28;20527;-59
2023/09/08 05:18:51;;;;;;;9.15;7.70;;;21.00;99.90;;;;;;5073032;28;20103;-59
2023/09/08 05:21:17;;;;;;;8.27;7.57;;;21.00;99.90;;;;;;5073540;28;20099;-59
2023/09/08 05:23:43;;;;;;;8.65;7.88;;;21.00;99.90;;;;;;5073042;28;20029;-59
2023/09/08 05:26:08;;;;;;;9.30;8.30;;;21.00;99.90;;;;;;5073473;28;20132;-59
2023/09/08 05:28:34;;;;;;;7.78;7.07;;;20.90;99.90;;;;;;5073626;28;20094;-59
2023/09/08 05:31:00;;;;;;;7.43;6.82;;;20.90;99.90;;;;;;5073313;28;20036;-59
2023/09/08 05:33:25;;;;;;;7.88;7.05;;;21.00;99.90;;;;;;5073348;28;20039;-59
2023/09/08 05:35:51;;;;;;;9.30;7.15;;;21.00;99.90;;;;;;5073705;28;20068;-59
2023/09/08 05:38:17;;;;;;;7.72;6.93;;;21.10;99.90;;;;;;5054697;28;20047;-58
2023/09/08 05:40:43;;;;;;;8.18;7.38;;;21.00;99.90;;;;;;5073178;28;20078;-58
2023/09/08 05:43:08;;;;;;;7.97;7.20;;;21.00;99.90;;;;;;5073112;28;20025;-59
2023/09/08 05:45:34;;;;;;;7.68;6.95;;;21.10;99.90;;;;;;5073413;28;20033;-59
2023/09/08 05:48:01;;;;;;;7.47;6.70;;;21.30;99.90;;;;;;5073040;28;20029;-59
2023/09/08 05:50:27;;;;;;;7.22;6.53;;;21.40;99.90;;;;;;5072805;28;20028;-58
2023/09/08 05:52:52;;;;;;;8.15;6.80;;;21.50;99.90;;;;;;5072440;28;20028;-57
2023/09/08 05:55:18;;;;;;;6.90;6.20;;;21.50;99.90;;;;;;5072872;28;20509;-57
2023/09/08 05:57:44;;;;;;;8.88;6.95;;;21.50;99.90;;;;;;5072690;28;20034;-58
2023/09/08 06:00:10;;;;;;;7.68;6.80;;;21.50;99.90;;;;;;5073107;28;20390;-58
2023/09/08 06:02:36;;;;;;;9.50;6.50;;;21.60;99.90;;;;;;5072665;28;20075;-58
2023/09/08 06:05:02;;;;;;;7.35;6.65;;;21.80;99.90;;;;;;5072681;28;20056;-57
2023/09/08 06:07:28;;;;;;;6.68;6.00;;;21.70;99.90;;;;;;5072312;28;20021;-57
2023/09/08 06:09:53;;;;;;;6.72;5.97;;;21.70;99.90;;;;;;5072403;28;20047;-58
2023/09/08 06:12:19;;;;;;;6.55;5.85;;;21.70;99.90;;;;;;5072916;28;20389;-57
2023/09/08 06:14:44;;;;;;;6.95;6.15;;;21.80;99.90;;;;;;5072410;28;20479;-58
2023/09/08 06:17:10;;;;;;;6.80;6.25;;;21.80;99.90;;;;;;5072469;28;20060;-58
2023/09/08 06:19:36;;;;;;;6.95;6.05;;;21.70;99.90;;;;;;5072067;28;20446;-59
2023/09/08 06:22:01;;;;;;;7.95;5.97;;;21.80;99.90;;;;;;5071559;28;20024;-58
2023/09/08 06:24:27;;;;;;;8.77;6.00;;;21.60;99.90;;;;;;5071909;28;20028;-58
2023/09/08 06:26:53;;;;;;;6.47;5.88;;;21.40;99.90;;;;;;5071892;28;20116;-59
2023/09/08 06:29:19;;;;;;;6.88;5.93;;;21.40;99.90;;;;;;5072190;28;20075;-58
2023/09/08 06:31:44;;;;;;;7.15;6.45;;;21.30;99.90;;;;;;5072333;28;20021;-58
2023/09/08 06:34:10;;;;;;;7.28;5.90;;;21.30;99.90;;;;;;5071998;28;20102;-59
2023/09/08 06:36:36;;;;;;;6.18;5.57;;;21.30;99.90;;;;;;5071684;28;20074;-58
2023/09/08 06:39:02;;;;;;;7.22;5.60;;;21.40;99.90;;;;;;5071970;28;20037;-58
2023/09/08 06:41:28;;;;;;;7.38;6.13;;;21.50;99.90;;;;;;5071803;28;20029;-58
2023/09/08 06:43:54;;;;;;;6.75;5.47;;;21.50;99.90;;;;;;5071866;28;20135;-58
2023/09/08 06:46:19;;;;;;;8.48;6.22;;;21.40;99.90;;;;;;5071847;28;20052;-58
2023/09/08 06:48:45;;;;;;;8.73;5.47;;;21.40;99.90;;;;;;5071766;28;20035;-59
2023/09/08 06:51:11;;;;;;;6.78;5.53;;;21.30;99.90;;;;;;5071107;28;20519;-58
2023/09/08 06:53:36;;;;;;;6.07;5.53;;;21.30;99.90;;;;;;5071932;28;20016;-59
2023/09/08 06:56:02;;;;;;;6.80;5.47;;;21.30;99.90;;;;;;5071309;28;20066;-58
2023/09/08 06:58:28;;;;;;;6.22;5.50;;;21.30;99.90;;;;;;5071989;28;20029;-58
2023/09/08 07:00:54;;;;;;;7.10;5.97;;;21.30;99.90;;;;;;5071552;28;20024;-58
2023/09/08 07:03:22;;;;;;;6.38;5.78;;;21.40;99.90;;;;;;5071566;28;20048;-59
2023/09/08 07:05:49;;;;;;;6.45;5.45;;;21.50;99.90;;;;;;5071577;28;20027;-58
2023/09/08 07:08:14;;;;;;;7.03;5.45;;;21.60;99.90;;;;;;5071575;28;20031;-58
2023/09/08 07:10:40;;;;;;;6.30;5.35;;;21.80;99.90;;;;;;5071556;28;20120;-58
2023/09/08 07:13:06;;;;;;;6.32;5.57;;;21.80;99.90;;;;;;5071344;28;20028;-58
2023/09/08 07:15:31;;;;;;;6.15;5.40;;;22.00;99.90;;;;;;5071451;28;20039;-58
2023/09/08 07:17:57;;;;;;;6.20;5.70;;;22.10;99.90;;;;;;5071823;28;20033;-58
2023/09/08 07:20:23;;;;;;;6.45;5.55;;;22.10;99.90;;;;;;5070769;28;20100;-58
2023/09/08 07:22:48;;;;;;;5.80;5.18;;;22.10;99.90;;;;;;5071319;28;20028;-58
2023/09/08 07:25:14;;;;;;;6.47;5.32;;;22.10;99.90;;;;;;5071165;28;20052;-58
2023/09/08 07:27:39;;;;;;;6.10;5.18;;;22.10;99.90;;;;;;5071569;28;20932;-58
2023/09/08 07:30:06;;;;;;;6.30;5.70;;;22.20;99.90;;;;;;5071146;28;20040;-58
2023/09/08 07:32:31;;;;;;;5.82;5.03;;;22.20;99.90;;;;;;5071234;28;20016;-58
2023/09/08 07:34:57;;;;;;;7.85;5.60;;;22.20;99.90;;;;;;5070742;28;20035;-57
2023/09/08 07:37:23;;;;;;;6.10;5.20;;;22.30;99.90;;;;;;5071547;28;20028;-58
2023/09/08 07:39:50;;;;;;;8.10;5.55;;;22.20;99.90;;;;;;5070762;28;20107;-57
2023/09/08 07:42:16;;;;;;;5.95;5.28;;;22.20;99.90;;;;;;5070820;28;20098;-58
2023/09/08 07:44:42;;;;;;;6.45;5.85;;;22.10;99.90;;;;;;5070984;28;20028;-58
2023/09/08 07:47:08;;;;;;;6.25;5.65;;;22.10;99.90;;;;;;5071498;28;20039;-58
2023/09/08 07:49:34;;;;;;;5.85;5.30;;;22.10;99.90;;;;;;5070414;28;20170;-58
2023/09/08 07:52:00;;;;;;;6.32;5.72;;;22.10;99.90;;;;;;5070737;28;20501;-61
2023/09/08 07:54:26;;;;;;;5.90;5.30;;;22.10;99.90;;;;;;5071104;28;20032;-59
2023/09/08 07:56:51;;;;;;;7.57;5.30;;;22.10;99.90;;;;;;5071113;28;20477;-58
2023/09/08 07:59:17;;;;;;;5.97;5.47;;;22.10;99.90;;;;;;5071329;28;20055;-58
2023/09/08 08:01:43;;;;;;;5.88;5.28;;;22.10;99.90;;;;;;5070396;28;20029;-58
2023/09/08 08:04:09;;;;;;;6.68;5.35;;;22.20;99.90;;;;;;5070760;28;20028;-58
2023/09/08 08:06:35;;;;;;;7.10;5.70;;;22.30;99.90;;;;;;5070879;28;20052;-58
2023/09/08 08:09:00;;;;;;;5.82;5.13;;;22.30;99.90;;;;;;5070953;28;20071;-59
2023/09/08 08:11:27;;;;;;;6.80;5.25;;;22.40;99.90;;;;;;5070867;28;20028;-58
2023/09/08 08:13:53;;;;;;;5.22;4.78;;;22.50;99.90;;;;;;5053183;28;20028;-58
2023/09/08 08:16:21;;;;;;;6.47;5.00;;;22.50;99.90;;;;;;5070336;28;20491;-58
2023/09/08 08:18:47;;;;;;;5.38;4.88;;;22.60;99.90;;;;;;5070602;28;20021;-58
2023/09/08 08:21:13;;;;;;;6.82;5.00;;;22.70;99.90;;;;;;5070556;28;20029;-58
2023/09/08 08:23:39;;;;;;;5.78;5.18;;;22.80;99.90;;;;;;5053090;28;20070;-59
2023/09/08 08:26:04;;;;;;;6.30;5.47;;;22.90;99.90;;;;;;5070907;28;20035;-58
2023/09/08 08:28:30;;;;;;;5.35;4.85;;;23.20;99.90;;;;;;5070552;28;20047;-59
2023/09/08 08:30:56;;;;;;;6.05;5.38;;;23.40;99.90;;;;;;5070254;28;20470;-58
2023/09/08 08:33:22;;;;;;;6.72;5.43;;;23.50;99.90;;;;;;5070659;28;20212;-58
2023/09/08 08:35:52;;;;;;;5.90;5.40;;;23.70;99.90;;;;;;5070769;28;20906;-59
2023/09/08 08:38:18;;;;;;;6.88;5.50;;;23.80;99.90;;;;;;5070980;28;20445;-58
2023/09/08 08:40:44;;;;;;;6.32;5.45;;;23.90;99.90;;;;;;5070632;28;20044;-58
2023/09/08 08:43:10;;;;;;;5.85;4.97;;;24.00;99.90;;;;;;5070455;28;20031;-58
2023/09/08 08:45:37;;;;;;;5.80;5.30;;;24.00;99.90;;;;;;5070038;28;20033;-59
2023/09/08 08:48:04;;;;;;;7.88;5.53;;;24.20;99.90;;;;;;5070646;28;20389;-58
2023/09/08 08:50:32;;;;;;;7.45;5.53;;;24.20;99.90;;;;;;5070548;28;20552;-59
2023/09/08 08:52:58;;;;;;;7.40;5.75;;;24.30;99.90;;;;;;5071585;28;20103;-58
2023/09/08 08:55:30;;;;;;;7.45;5.57;;;24.30;99.90;;;;;;5073925;28;20028;-58
2023/09/08 08:58:03;;;;;;;6.78;5.13;;;24.40;99.90;;;;;;5074263;28;20024;-59
2023/09/08 09:00:29;;;;;;;;;;;24.40;99.90;;;;;;5074008;28;20135;-59
2023/09/08 09:02:57;;;;;;;6.35;5.60;;;24.40;99.90;;;;;;5073821;28;19979;-58
2023/09/08 09:05:24;;;;;;;6.32;5.72;;;24.30;99.90;;;;;;5055782;28;20408;-58
2023/09/08 09:07:51;;;;;;;8.05;5.70;;;24.30;99.90;;;;;;5074118;28;20029;-58
2023/09/08 09:10:17;;;;;;;6.40;5.80;;;24.20;99.90;;;;;;5073602;28;20405;-58
2023/09/08 09:12:42;;;;;;;6.65;5.75;;;24.20;99.90;;;;;;5073532;28;20035;-59
2023/09/08 09:15:09;;;;;;;6.20;5.70;;;24.40;99.90;;;;;;5073711;28;20021;-58
2023/09/08 09:17:35;;;;;;;6.97;6.28;;;24.40;99.90;;;;;;5073559;28;20020;-59
2023/09/08 09:20:20;;;;;;;7.85;6.13;;;24.50;99.90;;;;;;5073413;28;20531;-58
2023/09/08 09:22:49;;;;;;;7.15;6.05;;;24.50;99.90;;;;;;5073113;28;20028;-57
2023/09/08 09:25:25;;;;;;;8.63;6.50;;;24.50;99.90;;;;;;5073959;28;20436;-59
2023/09/08 09:28:02;;;;;;;7.22;6.53;;;24.60;99.90;;;;;;5073478;28;20083;-58
2023/09/08 09:30:45;;;;;;;9.10;6.20;;;24.70;99.90;;;;;;5072942;28;20382;-58
2023/09/08 09:33:11;;;;;;;10.02;7.15;;;25.00;99.90;;;;;;5073373;28;20035;-59
2023/09/08 09:35:53;;;;;;;9.57;6.90;;;25.00;99.90;;;;;;5055303;28;20037;-59
2023/09/08 09:38:20;;;;;;;10.82;7.25;;;25.00;99.90;;;;;;5073230;28;20067;-58
2023/09/08 09:40:47;;;;;;;8.32;6.93;;;25.10;99.90;;;;;;5073578;28;20021;-58
2023/09/08 09:43:15;;;;;;;8.90;7.55;;;25.10;99.90;;;;;;5072651;28;20032;-58
2023/09/08 09:45:42;;;;;;;8.25;7.35;;;25.20;99.90;;;;;;5072933;28;20033;-58
2023/09/08 09:48:10;;;;;;;8.82;7.93;;;25.40;99.90;;;;;;5072832;28;20024;-58
2023/09/08 09:50:38;;;;;;;13.43;8.63;;;25.70;99.90;;;;;;5073298;28;20036;-59
2023/09/08 09:53:14;;;;;;;8.23;7.50;;;25.90;99.90;;;;;;5072718;28;20099;-58
2023/09/08 09:55:42;;;;;;;10.18;8.00;;;26.00;99.90;;;;;;5072730;28;20056;-58
2023/09/08 09:58:10;;;;;;;8.98;8.07;;;26.00;99.90;;;;;;5072515;28;20029;-58
2023/09/08 10:00:37;;;;;;;10.32;7.70;;;26.20;99.90;;;;;;5072805;28;20028;-58
2023/09/08 10:03:04;;;;;;;8.10;7.20;;;26.20;99.90;;;;;;5072251;28;20453;-58
2023/09/08 10:05:30;;;;;;;8.70;7.20;;;26.30;99.90;;;;;;5072763;28;20409;-58
2023/09/08 10:07:56;;;;;;;12.95;7.55;;;26.30;99.90;;;;;;5072693;28;20032;-58
2023/09/08 10:10:22;;;;;;;8.70;6.85;;;26.40;99.90;;;;;;5072812;28;20048;-58
2023/09/08 10:12:56;;;;;;;9.88;6.85;;;26.30;99.90;;;;;;5072192;28;20504;-58
2023/09/08 10:15:23;;;;;;;8.15;6.38;;;26.40;99.90;;;;;;5072611;28;20032;-58
2023/09/08 10:17:55;;;;;;;9.07;6.65;;;26.50;99.90;;;;;;5072455;28;20085;-58
2023/09/08 10:20:26;;;;;;;7.78;6.97;;;26.60;99.90;;;;;;5054312;28;20027;-58
2023/09/08 10:22:59;;;;;;;8.13;7.35;;;26.60;99.90;;;;;;5072656;28;20391;-59
2023/09/08 10:25:29;;;;;;;8.02;7.20;;;26.60;99.90;;;;;;5072423;28;20035;-58
2023/09/08 10:27:56;;;;;;;10.90;7.80;;;26.60;99.90;;;;;;5071739;28;20067;-59
2023/09/08 10:30:22;;;;;;;9.30;7.78;;;26.50;99.90;;;;;;5072026;28;20032;-59
2023/09/08 10:32:50;;;;;;;10.98;8.07;;;26.50;99.90;;;;;;5072057;28;20037;-59
2023/09/08 10:35:19;;;;;;;8.82;7.90;;;26.40;99.90;;;;;;5054602;28;20059;-58
2023/09/08 10:37:44;;;;;;;11.70;8.07;;;26.60;99.90;;;;;;5071953;28;20074;-59
2023/09/08 10:40:23;;;;;;;12.05;8.70;;;26.80;99.90;;;;;;5072129;28;20036;-59
2023/09/08 10:42:49;;;;;;;12.70;9.25;;;26.80;99.90;;;;;;5071846;28;20029;-59
2023/09/08 10:45:20;;;;;;;10.48;9.48;;;26.90;99.90;;;;;;5072011;28;20523;-59
2023/09/08 10:47:45;;;;;;;16.13;10.40;;;26.90;99.90;;;;;;5071847;28;20032;-58
2023/09/08 10:50:18;;;;;;;12.07;10.93;;;27.00;99.90;;;;;;5071754;28;20043;-58
2023/09/08 10:52:45;;;;;;;10.30;9.23;;;27.00;99.90;;;;;;5071645;28;20157;-58
2023/09/08 10:55:15;;;;;;;9.07;8.10;;;27.20;99.90;;;;;;5071861;28;20028;-58
2023/09/08 10:57:45;;;;;;;13.10;8.88;;;27.40;99.90;;;;;;5071695;28;20408;-58
2023/09/08 11:00:17;;;;;;;10.65;8.55;;;27.50;99.90;;;;;;5071590;28;20496;-59
2023/09/08 11:02:49;;;;;;;10.77;7.90;;;27.60;99.90;;;;;;5071698;28;20028;-59
2023/09/08 11:05:15;;;;;;;8.85;7.45;;;27.60;99.90;;;;;;5071678;28;20029;-59
2023/09/08 11:07:43;;;;;;;11.07;7.95;;;27.80;99.90;;;;;;5053451;28;20033;-58
2023/09/08 11:10:10;;;;;;;9.52;7.70;;;27.90;99.90;;;;;;5071458;28;20035;-58
2023/09/08 11:12:35;;;;;;;12.70;9.75;;;28.10;99.90;;;;;;5070955;28;20477;-59
2023/09/08 11:15:08;;;;;;;11.90;8.10;;;28.20;99.90;;;;;;5070668;28;20024;-58
2023/09/08 11:17:35;;;;;;;11.40;8.15;;;28.40;99.90;;;;;;5071512;28;20021;-59
2023/09/08 11:20:08;;;;;;;10.10;7.25;;;28.60;99.90;;;;;;5071586;28;20021;-58
2023/09/08 11:22:36;;;;;;;9.00;7.63;;;28.80;99.90;;;;;;5071435;28;20021;-58
2023/09/08 11:25:05;;;;;;;15.82;11.13;;;28.90;99.90;;;;;;5070474;28;20654;-59
2023/09/08 11:27:31;;;;;;;12.40;11.10;;;28.80;99.90;;;;;;5071519;28;20048;-58
2023/09/08 11:29:57;;;;;;;18.00;12.45;;;28.70;99.90;;;;;;5071226;28;20036;-59
2023/09/08 11:32:24;;;;;;;15.18;12.30;;;28.80;99.90;;;;;;5071171;28;20091;-58
2023/09/08 11:34:50;;;;;;;16.83;14.27;;;28.90;99.90;;;;;;5071183;28;20338;-59
2023/09/08 11:37:18;;;;;;;17.17;13.85;;;28.80;99.90;;;;;;5071176;28;20505;-59
2023/09/08 11:39:45;;;;;;;13.95;11.73;;;28.60;99.90;;;;;;5070831;28;20099;-58
2023/09/08 11:42:15;;;;;;;14.55;12.55;;;28.70;99.90;;;;;;5071090;28;20039;-58
2023/09/08 11:44:42;;;;;;;17.20;13.32;;;28.80;99.90;;;;;;5071624;28;20037;-59
2023/09/08 11:47:09;;;;;;;13.50;12.15;;;28.80;99.90;;;;;;5071222;28;20028;-58
2023/09/08 11:49:40;;;;;;;13.30;11.90;;;28.80;99.90;;;;;;5071096;28;20042;-59
2023/09/08 11:52:06;;;;;;;17.55;11.77;;;28.80;99.90;;;;;;5070626;28;20043;-58
2023/09/08 11:54:34;;;;;;;17.08;11.68;;;29.00;99.90;;;;;;5070794;28;20037;-58
2023/09/08 11:57:01;;;;;;;15.63;11.13;;;29.00;99.90;;;;;;5070898;28;20108;-58
2023/09/08 11:59:32;;;;;;;12.57;10.90;;;28.90;99.90;;;;;;5071042;28;20063;-58
2023/09/08 12:01:59;;;;;;;14.50;9.40;;;29.00;99.90;;;;;;5070924;28;20029;-59
2023/09/08 12:04:25;;;;;;;14.43;10.40;;;29.00;99.90;;;;;;5071050;28;20462;-59
2023/09/08 12:06:52;;;;;;;11.75;8.98;;;28.90;99.90;;;;;;5070680;28;20059;-58
2023/09/08 12:09:20;;;;;;;10.07;8.93;;;28.90;99.90;;;;;;5070766;28;20095;-58
2023/09/08 12:11:46;;;;;;;12.25;8.73;;;28.90;99.90;;;;;;5070304;28;20039;-59
2023/09/08 12:14:13;;;;;;;13.73;9.00;;;29.10;99.90;;;;;;5071197;28;20513;-58
2023/09/08 12:16:40;;;;;;;10.23;7.93;;;29.20;99.90;;;;;;5070885;28;20103;-58
2023/09/08 12:19:06;;;;;;;11.95;7.95;;;29.10;99.90;;;;;;5070740;28;20103;-59
2023/09/08 12:21:35;;;;;;;14.60;9.38;;;29.20;99.90;;;;;;5070575;28;20059;-59
2023/09/08 12:24:01;;;;;;;13.93;12.00;;;29.30;99.90;;;;;;5070280;28;20032;-59
2023/09/08 12:26:27;;;;;;;12.85;9.90;;;29.10;99.90;;;;;;5071326;28;20115;-59
2023/09/08 12:28:52;;;;;;;12.80;11.57;;;29.10;99.90;;;;;;5074598;28;20051;-59
2023/09/08 12:31:18;;;;;;;14.18;10.93;;;28.90;99.90;;;;;;5074532;28;20390;-59
2023/09/08 12:33:44;;;;;;;12.65;11.02;;;28.80;99.90;;;;;;5074411;28;20028;-58
2023/09/08 12:36:17;;;;;;;12.25;9.75;;;28.70;99.90;;;;;;5074783;28;20063;-58